createdAt,value
2023-05-19T00:00:01.078Z,97779.59
2023-05-19T00:02:33.964Z,97778.48
2023-05-19T00:05:02.935Z,97776.41
2023-05-19T00:07:32.777Z,97775.09
2023-05-19T00:10:01.643Z,97776.91
2023-05-19T00:12:30.195Z,97776.88
2023-05-19T00:15:01.942Z,97780.53
2023-05-19T00:17:30.033Z,97774.90
2023-05-19T00:19:58.548Z,97775.05
2023-05-19T00:22:26.621Z,97778.21
2023-05-19T00:24:59.812Z,97779.08
2023-05-19T00:27:31.262Z,97778.36
2023-05-19T00:30:09.602Z,97780.95
2023-05-19T00:32:37.801Z,97782.82
2023-05-19T00:35:06.841Z,97783.20
2023-05-19T00:37:34.995Z,97783.55
2023-05-19T00:40:05.737Z,97779.88
2023-05-19T00:42:34.250Z,97781.07
2023-05-19T00:45:05.506Z,97780.07
2023-05-19T00:47:34.299Z,97783.14
2023-05-19T00:50:02.815Z,97785.98
2023-05-19T00:52:31.445Z,97785.58
2023-05-19T00:55:00.242Z,97784.20
2023-05-19T00:57:28.881Z,97787.86
2023-05-19T00:59:57.183Z,97791.70
2023-05-19T01:02:25.767Z,97794.38
2023-05-19T01:04:55.624Z,97792.41
2023-05-19T01:07:23.834Z,97790.27
2023-05-19T01:09:52.220Z,97795.42
2023-05-19T01:12:20.518Z,97799.04
2023-05-19T01:14:48.925Z,97801.19
2023-05-19T01:17:16.949Z,97799.84
2023-05-19T01:19:57.627Z,97801.95
2023-05-19T01:22:34.566Z,97801.30
2023-05-19T01:25:13.270Z,97798.60
2023-05-19T01:28:06.464Z,97795.53
2023-05-19T01:30:39.830Z,97800.87
2023-05-19T01:33:16.013Z,97798.98
2023-05-19T01:35:45.901Z,97801.15
2023-05-19T01:38:17.507Z,97805.48
2023-05-19T01:40:56.869Z,97805.59
2023-05-19T01:43:27.492Z,97805.05
2023-05-19T01:45:58.776Z,97805.27
2023-05-19T01:48:29.960Z,97801.96
2023-05-19T01:51:02.595Z,97801.65
2023-05-19T01:53:31.160Z,97802.39
2023-05-19T01:56:02.025Z,97802.45
2023-05-19T01:58:47.151Z,97802.04
2023-05-19T02:01:41.602Z,97801.25
2023-05-19T02:04:18.714Z,97799.82
2023-05-19T02:07:21.313Z,97797.86
2023-05-19T02:10:25.245Z,97795.81
2023-05-19T02:12:58.870Z,97791.78
2023-05-19T02:15:46.424Z,97791.05
2023-05-19T02:18:20.583Z,97799.58
2023-05-19T02:20:52.047Z,97798.23
2023-05-19T02:23:20.584Z,97795.77
2023-05-19T02:25:51.652Z,97797.50
2023-05-19T02:28:28.547Z,97803.11
2023-05-19T02:30:59.443Z,97809.10
2023-05-19T02:33:27.853Z,97811.85
2023-05-19T02:35:57.391Z,97815.08
2023-05-19T02:38:26.009Z,97817.15
2023-05-19T02:40:54.335Z,97821.24
2023-05-19T02:43:22.648Z,97824.02
2023-05-19T02:45:51.028Z,97828.70
2023-05-19T02:48:19.459Z,97831.20
2023-05-19T02:50:47.972Z,97832.04
2023-05-19T02:53:15.999Z,97828.85
2023-05-19T02:55:44.173Z,97827.07
2023-05-19T02:58:12.243Z,97827.36
2023-05-19T03:00:40.442Z,97820.89
2023-05-19T03:03:10.600Z,97821.49
2023-05-19T03:05:39.196Z,97826.02
2023-05-19T03:08:07.488Z,97826.68
2023-05-19T03:10:36.356Z,97827.70
2023-05-19T03:13:04.417Z,97829.46
2023-05-19T03:15:32.547Z,97832.27
2023-05-19T03:18:03.842Z,97834.30
2023-05-19T03:20:32.480Z,97838.42
2023-05-19T03:23:01.667Z,97834.70
2023-05-19T03:25:30.154Z,97836.58
2023-05-19T03:27:58.616Z,97836.48
2023-05-19T03:30:26.958Z,97835.64
2023-05-19T03:33:13.841Z,97840.14
2023-05-19T03:35:42.180Z,97842.92
2023-05-19T03:38:10.635Z,97844.55
2023-05-19T03:40:42.308Z,97848.79
2023-05-19T03:43:12.010Z,97852.56
2023-05-19T03:45:46.514Z,97852.95
2023-05-19T03:48:35.964Z,97855.64
2023-05-19T03:51:22.514Z,97853.60
2023-05-19T03:53:52.716Z,97854.16
2023-05-19T03:56:26.743Z,97854.98
2023-05-19T03:58:55.470Z,97851.67
2023-05-19T04:01:23.863Z,97849.31
2023-05-19T04:03:52.339Z,97849.77
2023-05-19T04:06:20.576Z,97844.47
2023-05-19T04:08:48.852Z,97844.10
2023-05-19T04:11:17.334Z,97850.27
2023-05-19T04:13:48.687Z,97846.98
2023-05-19T04:16:17.416Z,97851.61
2023-05-19T04:18:46.468Z,97858.85
2023-05-19T04:21:14.735Z,97862.00
2023-05-19T04:23:42.841Z,97859.83
2023-05-19T04:26:12.436Z,97860.25
2023-05-19T04:28:42.468Z,97857.38
2023-05-19T04:31:14.692Z,97855.54
2023-05-19T04:33:43.477Z,97856.65
2023-05-19T04:36:13.888Z,97861.61
2023-05-19T04:38:42.406Z,97862.14
2023-05-19T04:41:14.749Z,97860.82
2023-05-19T04:43:44.577Z,97861.98
2023-05-19T04:46:14.156Z,97862.62
2023-05-19T04:48:45.232Z,97860.27
2023-05-19T04:51:14.472Z,97859.51
2023-05-19T04:53:44.981Z,97855.67
2023-05-19T04:56:17.350Z,97856.95
2023-05-19T04:58:45.787Z,97862.17
2023-05-19T05:01:15.803Z,97866.51
2023-05-19T05:03:45.036Z,97865.26
2023-05-19T05:06:13.116Z,97870.33
2023-05-19T05:08:42.714Z,97868.20
2023-05-19T05:11:11.794Z,97864.87
2023-05-19T05:13:43.156Z,97865.55
2023-05-19T05:16:12.462Z,97864.70
2023-05-19T05:18:44.693Z,97863.89
2023-05-19T05:21:14.220Z,97868.70
2023-05-19T05:23:54.186Z,97872.15
2023-05-19T05:29:37.068Z,97879.16
2023-05-19T05:32:06.209Z,97875.66
2023-05-19T05:34:35.942Z,97876.28
2023-05-19T05:37:04.158Z,97879.61
2023-05-19T05:39:32.559Z,97881.23
2023-05-19T05:42:01.548Z,97879.85
2023-05-19T05:44:30.671Z,97878.13
2023-05-19T05:46:59.655Z,97877.43
2023-05-19T05:49:28.183Z,97880.96
2023-05-19T05:52:05.595Z,97880.23
2023-05-19T05:54:35.996Z,97877.09
2023-05-19T05:57:04.371Z,97880.77
2023-05-19T05:59:33.972Z,97882.88
2023-05-19T06:02:09.702Z,97884.34
2023-05-19T06:04:38.376Z,97884.27
2023-05-19T06:07:27.352Z,97884.80
2023-05-19T06:10:09.048Z,97883.86
2023-05-19T06:12:40.783Z,97882.76
2023-05-19T06:15:10.645Z,97882.61
2023-05-19T06:17:41.402Z,97884.66
2023-05-19T06:20:10.293Z,97886.48
2023-05-19T06:22:38.459Z,97886.80
2023-05-19T06:25:09.045Z,97885.77
2023-05-19T06:27:37.617Z,97888.29
2023-05-19T06:30:08.721Z,97887.89
2023-05-19T06:32:42.652Z,97888.53
2023-05-19T06:35:11.152Z,97891.92
2023-05-19T06:37:39.483Z,97890.50
2023-05-19T06:40:08.634Z,97890.10
2023-05-19T06:42:40.138Z,97891.20
2023-05-19T06:45:16.220Z,97888.35
2023-05-19T06:47:45.371Z,97884.64
2023-05-19T06:50:14.736Z,97888.48
2023-05-19T06:52:44.438Z,97892.49
2023-05-19T06:55:13.966Z,97894.20
2023-05-19T06:57:42.462Z,97892.30
2023-05-19T07:00:17.595Z,97892.94
2023-05-19T07:02:48.154Z,97891.86
2023-05-19T07:05:17.699Z,97892.08
2023-05-19T07:07:48.335Z,97896.45
2023-05-19T07:10:19.530Z,97899.42
2023-05-19T07:12:47.784Z,97896.17
2023-05-19T07:15:19.930Z,97898.20
2023-05-19T07:17:48.069Z,97900.80
2023-05-19T07:20:16.620Z,97902.67
2023-05-19T07:22:44.768Z,97898.80
2023-05-19T07:25:15.231Z,97896.90
2023-05-19T07:27:43.400Z,97895.06
2023-05-19T07:30:12.103Z,97893.33
2023-05-19T07:32:40.157Z,97896.80
2023-05-19T07:35:08.830Z,97896.59
2023-05-19T07:37:36.936Z,97897.06
2023-05-19T07:40:06.847Z,97898.24
2023-05-19T07:42:35.273Z,97892.88
2023-05-19T07:45:03.782Z,97895.33
2023-05-19T07:47:32.176Z,97894.04
2023-05-19T07:50:00.271Z,97896.39
2023-05-19T07:52:28.531Z,97896.64
2023-05-19T07:54:56.607Z,97891.40
2023-05-19T07:57:24.869Z,97891.15
2023-05-19T08:00:27.328Z,97888.54
2023-05-19T08:02:57.317Z,97888.33
2023-05-19T08:05:29.781Z,97888.09
2023-05-19T08:07:57.792Z,97887.58
2023-05-19T08:10:26.061Z,97888.42
2023-05-19T08:12:54.024Z,97888.78
2023-05-19T08:15:22.117Z,97889.58
2023-05-19T08:17:50.441Z,97890.96
2023-05-19T08:20:18.856Z,97888.38
2023-05-19T08:22:47.047Z,97889.48
2023-05-19T08:25:15.193Z,97893.21
2023-05-19T08:27:43.410Z,97889.08
2023-05-19T08:30:12.470Z,97881.66
2023-05-19T08:32:40.629Z,97877.66
2023-05-19T08:35:09.249Z,97880.48
2023-05-19T08:37:38.840Z,97885.10
2023-05-19T08:40:09.025Z,97888.59
2023-05-19T08:42:37.091Z,97891.52
2023-05-19T08:45:06.282Z,97889.20
2023-05-19T08:47:34.943Z,97892.13
2023-05-19T08:50:08.028Z,97895.48
2023-05-19T08:52:52.581Z,97896.52
2023-05-19T08:55:47.173Z,97903.75
2023-05-19T08:58:20.391Z,97905.06
2023-05-19T09:00:49.530Z,97904.02
2023-05-19T09:05:51.833Z,97890.83
2023-05-19T09:08:20.090Z,97885.79
2023-05-19T09:10:51.263Z,97885.13
2023-05-19T09:13:19.801Z,97885.77
2023-05-19T09:15:50.404Z,97886.84
2023-05-19T09:18:18.521Z,97887.85
2023-05-19T09:20:47.380Z,97891.35
2023-05-19T09:23:16.936Z,97890.70
2023-05-19T09:25:50.368Z,97890.77
2023-05-19T09:28:29.499Z,97888.77
2023-05-19T09:31:11.677Z,97887.02
2023-05-19T09:33:45.617Z,97879.78
2023-05-19T09:36:17.229Z,97874.30
2023-05-19T09:38:45.718Z,97875.10
2023-05-19T09:41:14.923Z,97871.50
2023-05-19T09:43:43.203Z,97868.66
2023-05-19T09:46:14.897Z,97864.02
2023-05-19T09:48:44.976Z,97863.48
2023-05-19T09:51:13.425Z,97860.09
2023-05-19T09:53:42.263Z,97858.14
2023-05-19T09:56:11.107Z,97855.89
2023-05-19T09:58:44.107Z,97854.98
2023-05-19T10:01:12.768Z,97850.67
2023-05-19T10:03:49.653Z,97845.97
2023-05-19T10:06:17.801Z,97840.14
2023-05-19T10:08:48.100Z,97837.55
2023-05-19T10:11:17.676Z,97834.51
2023-05-19T10:13:50.988Z,97826.89
2023-05-19T10:16:26.869Z,97828.02
2023-05-19T10:18:56.761Z,97819.58
2023-05-19T10:21:25.121Z,97814.99
2023-05-19T10:23:53.250Z,97810.44
2023-05-19T10:26:23.248Z,97808.45
2023-05-19T10:28:51.805Z,97805.51
2023-05-19T10:31:22.861Z,97801.00
2023-05-19T10:34:32.715Z,97801.27
2023-05-19T10:37:00.727Z,97795.86
2023-05-19T10:39:37.545Z,97792.67
2023-05-19T10:42:31.100Z,97788.59
2023-05-19T10:45:20.440Z,97780.50
2023-05-19T10:47:52.024Z,97782.41
2023-05-19T10:50:21.021Z,97783.44
2023-05-19T10:52:56.377Z,97782.51
2023-05-19T10:55:50.386Z,97783.94
2023-05-19T10:58:37.653Z,97784.92
2023-05-19T11:01:13.656Z,97785.98
2023-05-19T11:03:49.699Z,97784.74
2023-05-19T11:06:32.440Z,97786.52
2023-05-19T11:09:31.094Z,97787.59
2023-05-19T11:12:06.947Z,97788.58
2023-05-19T11:14:35.223Z,97791.07
2023-05-19T11:17:05.613Z,97788.81
2023-05-19T11:19:35.686Z,97788.04
2023-05-19T11:22:14.086Z,97784.30
2023-05-19T11:24:52.075Z,97779.14
2023-05-19T11:27:29.117Z,97773.20
2023-05-19T11:30:04.435Z,97769.38
2023-05-19T11:32:34.076Z,97768.86
2023-05-19T11:35:02.934Z,97765.92
2023-05-19T11:37:34.718Z,97764.46
2023-05-19T11:40:12.103Z,97761.52
2023-05-19T11:42:42.148Z,97762.04
2023-05-19T11:45:10.663Z,97759.85
2023-05-19T11:47:57.166Z,97760.30
2023-05-19T11:50:27.077Z,97758.80
2023-05-19T11:52:57.813Z,97755.58
2023-05-19T11:55:25.982Z,97748.06
2023-05-19T11:58:05.824Z,97749.76
2023-05-19T12:00:40.439Z,97752.08
2023-05-19T12:03:11.002Z,97752.23
2023-05-19T12:05:48.610Z,97748.95
2023-05-19T12:08:19.123Z,97745.92
2023-05-19T12:10:52.953Z,97745.00
2023-05-19T12:13:23.148Z,97742.31
2023-05-19T12:15:53.478Z,97744.09
2023-05-19T12:18:21.843Z,97744.02
2023-05-19T12:20:49.866Z,97740.89
2023-05-19T12:23:18.194Z,97740.55
2023-05-19T12:25:46.372Z,97735.70
2023-05-19T12:28:16.624Z,97733.23
2023-05-19T12:30:49.588Z,97733.05
2023-05-19T12:33:22.829Z,97732.10
2023-05-19T12:35:51.528Z,97730.39
2023-05-19T12:38:20.964Z,97735.04
2023-05-19T12:40:50.294Z,97737.27
2023-05-19T12:43:22.484Z,97734.02
2023-05-19T12:45:51.347Z,97732.11
2023-05-19T12:48:22.778Z,97724.94
2023-05-19T12:50:55.509Z,97722.03
2023-05-19T12:53:27.868Z,97722.19
2023-05-19T12:55:56.029Z,97719.53
2023-05-19T12:58:24.303Z,97716.73
2023-05-19T13:00:59.826Z,97723.15
2023-05-19T13:03:28.483Z,97728.38
2023-05-19T13:05:56.593Z,97734.14
2023-05-19T13:08:25.108Z,97739.04
2023-05-19T13:10:56.551Z,97740.41
2023-05-19T13:13:25.313Z,97736.65
2023-05-19T13:15:53.811Z,97735.77
2023-05-19T13:18:22.074Z,97735.67
2023-05-19T13:20:54.355Z,97736.74
2023-05-19T13:23:22.352Z,97739.09
2023-05-19T13:25:51.658Z,97747.99
2023-05-19T13:28:20.194Z,97780.45
2023-05-19T13:30:49.733Z,97800.39
2023-05-19T13:33:20.479Z,97797.05
2023-05-19T13:35:49.410Z,97801.96
2023-05-19T13:38:17.437Z,97799.91
2023-05-19T13:40:46.033Z,97806.30
2023-05-19T13:43:15.168Z,97808.30
2023-05-19T13:45:44.715Z,97800.66
2023-05-19T13:48:13.344Z,97797.29
2023-05-19T13:50:42.877Z,97796.20
2023-05-19T13:53:11.773Z,97795.13
2023-05-19T13:55:45.610Z,97794.73
2023-05-19T13:58:19.413Z,97794.84
2023-05-19T14:00:47.996Z,97793.73
2023-05-19T14:03:19.901Z,97792.20
2023-05-19T14:05:59.167Z,97789.21
2023-05-19T14:08:28.218Z,97793.98
2023-05-19T14:11:05.543Z,97797.39
2023-05-19T14:16:09.246Z,97785.34
2023-05-19T14:18:37.792Z,97789.17
2023-05-19T14:21:08.964Z,97790.52
2023-05-19T14:23:42.400Z,97791.33
2023-05-19T14:26:19.957Z,97791.13
2023-05-19T14:28:49.145Z,97790.31
2023-05-19T14:31:19.835Z,97792.00
2023-05-19T14:33:48.811Z,97788.64
2023-05-19T14:36:18.819Z,97782.00
2023-05-19T14:38:47.297Z,97782.52
2023-05-19T14:41:15.555Z,97782.02
2023-05-19T14:43:43.859Z,97777.56
2023-05-19T14:46:11.889Z,97777.06
2023-05-19T14:48:40.114Z,97775.83
2023-05-19T14:51:08.421Z,97778.75
2023-05-19T14:53:36.813Z,97778.45
2023-05-19T14:56:06.539Z,97778.41
2023-05-19T14:58:34.833Z,97779.23
2023-05-19T15:01:02.868Z,97778.63
2023-05-19T15:03:31.354Z,97776.79
2023-05-19T15:06:00.310Z,97772.03
2023-05-19T15:08:28.495Z,97761.48
2023-05-19T15:10:56.557Z,97758.45
2023-05-19T15:13:26.425Z,97751.52
2023-05-19T15:16:08.448Z,97746.73
2023-05-19T15:18:44.283Z,97744.76
2023-05-19T15:21:12.804Z,97743.92
2023-05-19T15:23:41.183Z,97737.44
2023-05-19T15:26:09.664Z,97735.83
2023-05-19T15:28:38.133Z,97729.64
2023-05-19T15:31:07.386Z,97727.23
2023-05-19T15:33:36.306Z,97725.10
2023-05-19T15:36:07.062Z,97727.67
2023-05-19T15:38:36.378Z,97724.46
2023-05-19T15:41:08.411Z,97721.75
2023-05-19T15:43:37.906Z,97718.92
2023-05-19T15:46:06.885Z,97720.09
2023-05-19T15:48:35.317Z,97722.28
2023-05-19T15:51:03.606Z,97720.91
2023-05-19T15:53:31.670Z,97717.63
2023-05-19T15:56:00.917Z,97716.88
2023-05-19T15:58:30.244Z,97720.05
2023-05-19T16:00:58.420Z,97723.29
2023-05-19T16:03:27.492Z,97723.45
2023-05-19T16:05:56.742Z,97721.48
2023-05-19T16:08:25.293Z,97723.75
2023-05-19T16:10:55.082Z,97727.50
2023-05-19T16:13:23.576Z,97732.89
2023-05-19T16:15:52.733Z,97728.98
2023-05-19T16:18:21.300Z,97727.02
2023-05-19T16:20:51.328Z,97722.30
2023-05-19T16:23:19.571Z,97728.27
2023-05-19T16:25:48.935Z,97733.03
2023-05-19T16:28:17.286Z,97736.30
2023-05-19T16:30:46.281Z,97742.30
2023-05-19T16:33:14.322Z,97744.33
2023-05-19T16:35:44.645Z,97750.50
2023-05-19T16:38:12.927Z,97755.35
2023-05-19T16:40:41.028Z,97756.33
2023-05-19T16:43:09.221Z,97755.42
2023-05-19T16:45:38.437Z,97760.58
2023-05-19T16:48:06.652Z,97765.83
2023-05-19T16:50:35.128Z,97768.05
2023-05-19T16:53:03.454Z,97773.30
2023-05-19T16:55:31.758Z,97779.86
2023-05-19T16:57:59.995Z,97782.48
2023-05-19T17:00:29.495Z,97783.14
2023-05-19T17:02:57.716Z,97787.52
2023-05-19T17:05:27.379Z,97786.56
2023-05-19T17:07:55.859Z,97792.98
2023-05-19T17:10:24.105Z,97793.27
2023-05-19T17:12:52.593Z,97795.06
2023-05-19T17:15:21.106Z,97794.64
2023-05-19T17:17:49.802Z,97795.77
2023-05-19T17:20:20.333Z,97801.06
2023-05-19T17:22:48.450Z,97801.09
2023-05-19T17:25:16.696Z,97804.10
2023-05-19T17:27:44.900Z,97803.89
2023-05-19T17:30:14.224Z,97808.67
2023-05-19T17:32:42.765Z,97813.46
2023-05-19T17:35:11.415Z,97810.56
2023-05-19T17:37:39.521Z,97812.20
2023-05-19T17:40:08.713Z,97814.02
2023-05-19T17:42:36.962Z,97814.19
2023-05-19T17:45:07.778Z,97814.63
2023-05-19T17:47:36.018Z,97813.19
2023-05-19T17:50:04.648Z,97813.02
2023-05-19T17:52:33.509Z,97812.55
2023-05-19T17:55:02.080Z,97810.59
2023-05-19T17:57:32.724Z,97812.02
2023-05-19T18:00:01.580Z,97810.40
2023-05-19T18:02:33.571Z,97811.75
2023-05-19T18:05:02.214Z,97813.25
2023-05-19T18:07:54.198Z,97821.63
2023-05-19T18:10:24.622Z,97825.61
2023-05-19T18:13:01.682Z,97832.39
2023-05-19T18:15:30.035Z,97839.38
2023-05-19T18:17:59.255Z,97846.94
2023-05-19T18:20:28.816Z,97848.89
2023-05-19T18:22:59.833Z,97852.73
2023-05-19T18:25:31.067Z,97856.67
2023-05-19T18:28:08.373Z,97859.36
2023-05-19T18:30:36.663Z,97862.39
2023-05-19T18:33:07.314Z,97861.04
2023-05-19T18:35:37.511Z,97859.15
2023-05-19T18:38:07.972Z,97856.21
2023-05-19T18:40:36.485Z,97855.99
2023-05-19T18:43:05.181Z,97857.98
2023-05-19T18:45:36.930Z,97860.41
2023-05-19T18:48:07.403Z,97860.84
2023-05-19T18:50:36.584Z,97864.16
2023-05-19T18:53:04.705Z,97864.20
2023-05-19T18:55:38.287Z,97863.08
2023-05-19T18:58:07.093Z,97864.16
2023-05-19T19:00:36.155Z,97862.77
2023-05-19T19:03:05.000Z,97865.29
2023-05-19T19:05:33.569Z,97865.70
2023-05-19T19:08:10.073Z,97866.22
2023-05-19T19:10:40.731Z,97868.05
2023-05-19T19:13:09.206Z,97869.73
2023-05-19T19:15:39.704Z,97873.32
2023-05-19T19:18:08.786Z,97876.86
2023-05-19T19:20:37.273Z,97875.34
2023-05-19T19:23:06.894Z,97874.89
2023-05-19T19:25:35.708Z,97874.83
2023-05-19T19:28:03.992Z,97875.04
2023-05-19T19:30:32.476Z,97876.32
2023-05-19T19:33:01.301Z,97876.09
2023-05-19T19:35:29.801Z,97879.12
2023-05-19T19:38:01.625Z,97881.83
2023-05-19T19:40:36.530Z,97884.55
2023-05-19T19:43:07.624Z,97884.91
2023-05-19T19:45:39.458Z,97883.34
2023-05-19T19:48:07.956Z,97889.44
2023-05-19T19:50:36.609Z,97891.02
2023-05-19T19:53:05.132Z,97893.27
2023-05-19T19:55:35.982Z,97893.80
2023-05-19T19:58:04.288Z,97897.11
2023-05-19T20:00:32.766Z,97899.35
2023-05-19T20:03:05.157Z,97898.60
2023-05-19T20:05:38.056Z,97899.60
2023-05-19T20:08:06.248Z,97901.71
2023-05-19T20:10:34.951Z,97899.67
2023-05-19T20:13:03.558Z,97900.55
2023-05-19T20:15:31.987Z,97903.11
2023-05-19T20:18:00.386Z,97904.05
2023-05-19T20:20:29.344Z,97904.61
2023-05-19T20:22:57.680Z,97907.55
2023-05-19T20:25:26.277Z,97901.24
2023-05-19T20:27:54.575Z,97898.96
2023-05-19T20:30:23.084Z,97905.56
2023-05-19T20:32:51.719Z,97908.61
2023-05-19T20:35:20.108Z,97907.32
2023-05-19T20:37:49.514Z,97910.23
2023-05-19T20:40:18.708Z,97909.95
2023-05-19T20:42:47.067Z,97911.84
2023-05-19T20:45:18.574Z,97908.48
2023-05-19T20:47:46.931Z,97911.45
2023-05-19T20:50:15.345Z,97913.44
2023-05-19T20:52:44.373Z,97908.45
2023-05-19T20:55:12.801Z,97910.04
2023-05-19T20:57:41.208Z,97910.08
2023-05-19T21:00:11.008Z,97907.34
2023-05-19T21:02:39.590Z,97907.50
2023-05-19T21:05:08.809Z,97907.75
2023-05-19T21:07:37.105Z,97915.32
2023-05-19T21:10:06.145Z,97918.82
2023-05-19T21:12:35.338Z,97920.69
2023-05-19T21:15:06.027Z,97923.80
2023-05-19T21:17:43.471Z,97921.65
2023-05-19T21:20:12.324Z,97922.34
2023-05-19T21:22:41.463Z,97916.81
2023-05-19T21:25:09.758Z,97915.34
2023-05-19T21:27:39.736Z,97916.85
2023-05-19T21:30:09.908Z,97924.17
2023-05-19T21:32:38.302Z,97924.56
2023-05-19T21:35:07.028Z,97927.23
2023-05-19T21:37:36.368Z,97930.77
2023-05-19T21:40:05.137Z,97931.42
2023-05-19T21:42:33.448Z,97932.79
2023-05-19T21:45:02.389Z,97934.40
2023-05-19T21:47:33.411Z,97935.42
2023-05-19T21:50:01.895Z,97934.33
2023-05-19T21:52:31.374Z,97932.09
2023-05-19T21:54:59.989Z,97935.61
2023-05-19T21:57:30.958Z,97934.40
2023-05-19T21:59:59.510Z,97935.86
2023-05-19T22:02:27.943Z,97937.67
2023-05-19T22:04:56.261Z,97935.84
2023-05-19T22:07:27.100Z,97936.91
2023-05-19T22:09:58.367Z,97937.05
2023-05-19T22:12:27.168Z,97932.80
2023-05-19T22:14:55.713Z,97926.67
2023-05-19T22:17:24.576Z,97923.69
2023-05-19T22:19:56.016Z,97928.92
2023-05-19T22:22:24.662Z,97926.96
2023-05-19T22:25:22.656Z,97925.54
2023-05-19T22:28:14.652Z,97931.27
2023-05-19T22:30:44.391Z,97932.85
2023-05-19T22:33:13.160Z,97935.95
2023-05-19T22:35:41.804Z,97937.89
2023-05-19T22:38:10.605Z,97938.70
2023-05-19T22:40:39.354Z,97940.50
2023-05-19T22:43:08.183Z,97945.66
2023-05-19T22:45:37.005Z,97943.84
2023-05-19T22:48:05.717Z,97939.42
2023-05-19T22:50:34.417Z,97936.97
2023-05-19T22:53:02.827Z,97936.99
2023-05-19T22:55:31.605Z,97938.11
2023-05-19T22:58:00.097Z,97937.02
2023-05-19T23:00:31.275Z,97933.70
2023-05-19T23:02:59.586Z,97935.41
2023-05-19T23:05:28.181Z,97934.54
2023-05-19T23:07:59.736Z,97937.02
2023-05-19T23:10:28.090Z,97942.31
2023-05-19T23:12:56.503Z,97941.46
2023-05-19T23:15:26.913Z,97941.85
2023-05-19T23:17:55.143Z,97941.48
2023-05-19T23:20:26.661Z,97944.32
2023-05-19T23:22:55.170Z,97941.17
2023-05-19T23:25:23.737Z,97939.11
2023-05-19T23:27:52.153Z,97933.45
2023-05-19T23:30:20.630Z,97934.20
2023-05-19T23:32:48.988Z,97935.30
2023-05-19T23:35:17.501Z,97937.58
2023-05-19T23:37:45.935Z,97935.23
2023-05-19T23:40:22.132Z,97935.24
2023-05-19T23:42:50.814Z,97928.66
2023-05-19T23:45:19.228Z,97927.73
2023-05-19T23:47:47.421Z,97925.99
2023-05-19T23:50:15.979Z,97927.40
2023-05-19T23:52:44.383Z,97928.96
2023-05-19T23:55:13.814Z,97927.17
2023-05-19T23:57:42.649Z,97926.16
